sensor_id;sensor_type;location;lat;lon;timestamp;P1;durP1;ratioP1;P2;durP2;ratioP2
22435;SDS011;11385;50.822;4.324;2023-07-02T00:01:50;33.98;;;19.00;;
22435;SDS011;11385;50.822;4.324;2023-07-02T00:04:17;30.65;;;18.10;;
22435;SDS011;11385;50.822;4.324;2023-07-02T00:06:45;32.28;;;16.82;;
22435;SDS011;11385;50.822;4.324;2023-07-02T00:09:14;25.80;;;17.00;;
22435;SDS011;11385;50.822;4.324;2023-07-02T00:11:42;31.75;;;18.17;;
22435;SDS011;11385;50.822;4.324;2023-07-02T00:14:11;32.28;;;16.73;;
22435;SDS011;11385;50.822;4.324;2023-07-02T00:16:42;30.25;;;17.77;;
22435;SDS011;11385;50.822;4.324;2023-07-02T00:19:09;31.97;;;17.27;;
22435;SDS011;11385;50.822;4.324;2023-07-02T00:21:36;34.53;;;17.60;;
22435;SDS011;11385;50.822;4.324;2023-07-02T00:24:04;31.50;;;17.77;;
22435;SDS011;11385;50.822;4.324;2023-07-02T00:26:31;38.88;;;18.95;;
22435;SDS011;11385;50.822;4.324;2023-07-02T00:28:57;36.33;;;19.27;;
22435;SDS011;11385;50.822;4.324;2023-07-02T00:31:24;32.48;;;19.20;;
22435;SDS011;11385;50.822;4.324;2023-07-02T00:33:51;31.35;;;18.52;;
22435;SDS011;11385;50.822;4.324;2023-07-02T00:36:17;32.53;;;18.55;;
22435;SDS011;11385;50.822;4.324;2023-07-02T00:38:45;30.60;;;17.95;;
22435;SDS011;11385;50.822;4.324;2023-07-02T00:41:13;37.40;;;20.92;;
22435;SDS011;11385;50.822;4.324;2023-07-02T00:43:41;35.17;;;19.70;;
22435;SDS011;11385;50.822;4.324;2023-07-02T00:46:11;36.03;;;18.80;;
22435;SDS011;11385;50.822;4.324;2023-07-02T00:48:43;32.75;;;19.20;;
22435;SDS011;11385;50.822;4.324;2023-07-02T00:51:12;35.25;;;19.40;;
22435;SDS011;11385;50.822;4.324;2023-07-02T00:53:41;35.95;;;19.70;;
22435;SDS011;11385;50.822;4.324;2023-07-02T00:56:12;35.58;;;19.48;;
22435;SDS011;11385;50.822;4.324;2023-07-02T00:58:40;37.40;;;20.25;;
22435;SDS011;11385;50.822;4.324;2023-07-02T01:01:18;33.95;;;20.32;;
22435;SDS011;11385;50.822;4.324;2023-07-02T01:03:51;37.53;;;21.07;;
22435;SDS011;11385;50.822;4.324;2023-07-02T01:06:26;37.83;;;20.60;;
22435;SDS011;11385;50.822;4.324;2023-07-02T01:08:55;38.35;;;20.82;;
22435;SDS011;11385;50.822;4.324;2023-07-02T01:11:25;36.65;;;20.68;;
22435;SDS011;11385;50.822;4.324;2023-07-02T01:13:59;39.75;;;20.45;;
22435;SDS011;11385;50.822;4.324;2023-07-02T01:16:30;39.03;;;20.37;;
22435;SDS011;11385;50.822;4.324;2023-07-02T01:18:58;38.75;;;20.43;;
22435;SDS011;11385;50.822;4.324;2023-07-02T01:21:28;41.20;;;20.50;;
22435;SDS011;11385;50.822;4.324;2023-07-02T01:23:57;40.23;;;20.50;;
22435;SDS011;11385;50.822;4.324;2023-07-02T01:26:29;39.78;;;21.68;;
22435;SDS011;11385;50.822;4.324;2023-07-02T01:28:59;37.85;;;21.48;;
22435;SDS011;11385;50.822;4.324;2023-07-02T01:31:26;43.05;;;21.52;;
22435;SDS011;11385;50.822;4.324;2023-07-02T01:33:53;37.70;;;20.68;;
22435;SDS011;11385;50.822;4.324;2023-07-02T01:36:19;38.35;;;20.65;;
22435;SDS011;11385;50.822;4.324;2023-07-02T01:38:46;41.05;;;23.00;;
22435;SDS011;11385;50.822;4.324;2023-07-02T01:41:12;41.42;;;23.95;;
22435;SDS011;11385;50.822;4.324;2023-07-02T01:43:39;42.48;;;23.07;;
22435;SDS011;11385;50.822;4.324;2023-07-02T01:46:06;41.55;;;22.45;;
22435;SDS011;11385;50.822;4.324;2023-07-02T01:48:32;45.75;;;23.45;;
22435;SDS011;11385;50.822;4.324;2023-07-02T01:50:59;43.30;;;23.57;;
22435;SDS011;11385;50.822;4.324;2023-07-02T01:53:25;42.43;;;21.73;;
22435;SDS011;11385;50.822;4.324;2023-07-02T01:55:52;43.50;;;22.90;;
22435;SDS011;11385;50.822;4.324;2023-07-02T01:58:19;38.30;;;22.75;;
22435;SDS011;11385;50.822;4.324;2023-07-02T02:00:46;41.88;;;22.42;;
22435;SDS011;11385;50.822;4.324;2023-07-02T02:03:12;39.63;;;22.22;;
22435;SDS011;11385;50.822;4.324;2023-07-02T02:05:39;42.83;;;22.17;;
22435;SDS011;11385;50.822;4.324;2023-07-02T02:08:06;40.23;;;22.52;;
22435;SDS011;11385;50.822;4.324;2023-07-02T02:10:32;47.55;;;24.07;;
22435;SDS011;11385;50.822;4.324;2023-07-02T02:12:59;39.92;;;23.77;;
22435;SDS011;11385;50.822;4.324;2023-07-02T02:15:26;42.03;;;22.85;;
22435;SDS011;11385;50.822;4.324;2023-07-02T02:17:53;42.05;;;22.90;;
22435;SDS011;11385;50.822;4.324;2023-07-02T02:20:19;47.78;;;24.82;;
22435;SDS011;11385;50.822;4.324;2023-07-02T02:22:46;43.63;;;23.70;;
22435;SDS011;11385;50.822;4.324;2023-07-02T02:25:13;44.88;;;22.90;;
22435;SDS011;11385;50.822;4.324;2023-07-02T02:27:39;44.73;;;23.52;;
22435;SDS011;11385;50.822;4.324;2023-07-02T02:30:06;45.28;;;24.07;;
22435;SDS011;11385;50.822;4.324;2023-07-02T02:32:33;44.95;;;23.77;;
22435;SDS011;11385;50.822;4.324;2023-07-02T02:35:00;43.55;;;23.35;;
22435;SDS011;11385;50.822;4.324;2023-07-02T02:37:26;50.20;;;24.45;;
22435;SDS011;11385;50.822;4.324;2023-07-02T02:39:53;45.08;;;24.35;;
22435;SDS011;11385;50.822;4.324;2023-07-02T02:42:21;47.98;;;25.50;;
22435;SDS011;11385;50.822;4.324;2023-07-02T02:44:47;55.43;;;24.50;;
22435;SDS011;11385;50.822;4.324;2023-07-02T02:47:14;47.38;;;25.23;;
22435;SDS011;11385;50.822;4.324;2023-07-02T02:49:40;48.78;;;25.97;;
22435;SDS011;11385;50.822;4.324;2023-07-02T02:52:07;50.52;;;25.17;;
22435;SDS011;11385;50.822;4.324;2023-07-02T02:54:34;50.05;;;24.37;;
22435;SDS011;11385;50.822;4.324;2023-07-02T02:57:00;52.70;;;25.30;;
22435;SDS011;11385;50.822;4.324;2023-07-02T02:59:27;53.70;;;24.77;;
22435;SDS011;11385;50.822;4.324;2023-07-02T03:01:54;52.90;;;25.65;;
22435;SDS011;11385;50.822;4.324;2023-07-02T03:04:20;50.00;;;26.02;;
22435;SDS011;11385;50.822;4.324;2023-07-02T03:06:49;56.50;;;27.73;;
22435;SDS011;11385;50.822;4.324;2023-07-02T03:09:17;55.35;;;26.90;;
22435;SDS011;11385;50.822;4.324;2023-07-02T03:11:43;52.90;;;26.33;;
22435;SDS011;11385;50.822;4.324;2023-07-02T03:14:10;50.88;;;26.75;;
22435;SDS011;11385;50.822;4.324;2023-07-02T03:16:37;53.28;;;26.27;;
22435;SDS011;11385;50.822;4.324;2023-07-02T03:19:03;59.40;;;27.73;;
22435;SDS011;11385;50.822;4.324;2023-07-02T03:21:30;52.27;;;26.82;;
22435;SDS011;11385;50.822;4.324;2023-07-02T03:23:58;49.88;;;27.42;;
22435;SDS011;11385;50.822;4.324;2023-07-02T03:26:24;50.83;;;26.60;;
22435;SDS011;11385;50.822;4.324;2023-07-02T03:28:51;52.53;;;27.62;;
22435;SDS011;11385;50.822;4.324;2023-07-02T03:31:17;50.38;;;28.57;;
22435;SDS011;11385;50.822;4.324;2023-07-02T03:33:44;47.95;;;26.17;;
22435;SDS011;11385;50.822;4.324;2023-07-02T03:36:11;57.05;;;26.80;;
22435;SDS011;11385;50.822;4.324;2023-07-02T03:38:37;58.25;;;29.15;;
22435;SDS011;11385;50.822;4.324;2023-07-02T03:41:04;57.62;;;28.35;;
22435;SDS011;11385;50.822;4.324;2023-07-02T03:43:31;54.83;;;28.38;;
22435;SDS011;11385;50.822;4.324;2023-07-02T03:45:57;60.25;;;28.73;;
22435;SDS011;11385;50.822;4.324;2023-07-02T03:48:24;57.48;;;28.32;;
22435;SDS011;11385;50.822;4.324;2023-07-02T03:50:51;59.13;;;29.67;;
22435;SDS011;11385;50.822;4.324;2023-07-02T03:53:17;63.20;;;29.95;;
22435;SDS011;11385;50.822;4.324;2023-07-02T03:55:44;53.92;;;29.70;;
22435;SDS011;11385;50.822;4.324;2023-07-02T03:58:10;61.85;;;30.40;;
22435;SDS011;11385;50.822;4.324;2023-07-02T04:00:37;56.42;;;28.00;;
22435;SDS011;11385;50.822;4.324;2023-07-02T04:03:04;57.80;;;29.27;;
22435;SDS011;11385;50.822;4.324;2023-07-02T04:05:31;65.75;;;29.50;;
22435;SDS011;11385;50.822;4.324;2023-07-02T04:07:57;61.42;;;30.08;;
22435;SDS011;11385;50.822;4.324;2023-07-02T04:10:25;55.85;;;28.38;;
22435;SDS011;11385;50.822;4.324;2023-07-02T04:12:52;53.10;;;28.23;;
22435;SDS011;11385;50.822;4.324;2023-07-02T04:15:19;63.00;;;30.37;;
22435;SDS011;11385;50.822;4.324;2023-07-02T04:17:45;60.33;;;29.85;;
22435;SDS011;11385;50.822;4.324;2023-07-02T04:20:12;63.65;;;29.05;;
22435;SDS011;11385;50.822;4.324;2023-07-02T04:22:39;53.28;;;29.32;;
22435;SDS011;11385;50.822;4.324;2023-07-02T04:25:05;56.65;;;29.50;;
22435;SDS011;11385;50.822;4.324;2023-07-02T04:27:32;67.27;;;29.35;;
22435;SDS011;11385;50.822;4.324;2023-07-02T04:30:00;64.62;;;30.52;;
22435;SDS011;11385;50.822;4.324;2023-07-02T04:35:29;64.07;;;30.02;;
22435;SDS011;11385;50.822;4.324;2023-07-02T04:37:56;58.02;;;28.67;;
22435;SDS011;11385;50.822;4.324;2023-07-02T04:40:23;58.80;;;29.05;;
22435;SDS011;11385;50.822;4.324;2023-07-02T04:42:49;59.18;;;29.30;;
22435;SDS011;11385;50.822;4.324;2023-07-02T04:45:18;66.15;;;30.20;;
22435;SDS011;11385;50.822;4.324;2023-07-02T04:47:46;59.83;;;29.00;;
22435;SDS011;11385;50.822;4.324;2023-07-02T04:50:12;61.40;;;29.45;;
22435;SDS011;11385;50.822;4.324;2023-07-02T04:52:39;61.35;;;28.95;;
22435;SDS011;11385;50.822;4.324;2023-07-02T04:55:06;56.90;;;29.25;;
22435;SDS011;11385;50.822;4.324;2023-07-02T04:57:33;62.38;;;28.87;;
22435;SDS011;11385;50.822;4.324;2023-07-02T04:59:59;61.25;;;30.10;;
22435;SDS011;11385;50.822;4.324;2023-07-02T05:02:26;58.98;;;30.30;;
22435;SDS011;11385;50.822;4.324;2023-07-02T05:04:53;57.20;;;30.37;;
22435;SDS011;11385;50.822;4.324;2023-07-02T05:07:19;54.48;;;29.40;;
22435;SDS011;11385;50.822;4.324;2023-07-02T05:09:46;58.00;;;28.12;;
22435;SDS011;11385;50.822;4.324;2023-07-02T05:12:14;51.90;;;28.50;;
22435;SDS011;11385;50.822;4.324;2023-07-02T05:14:40;59.18;;;28.32;;
22435;SDS011;11385;50.822;4.324;2023-07-02T05:17:07;58.75;;;29.60;;
22435;SDS011;11385;50.822;4.324;2023-07-02T05:19:34;56.50;;;29.23;;
22435;SDS011;11385;50.822;4.324;2023-07-02T05:22:00;55.83;;;27.77;;
22435;SDS011;11385;50.822;4.324;2023-07-02T05:24:27;55.45;;;27.87;;
22435;SDS011;11385;50.822;4.324;2023-07-02T05:26:53;55.88;;;30.25;;
22435;SDS011;11385;50.822;4.324;2023-07-02T05:29:20;54.27;;;29.05;;
22435;SDS011;11385;50.822;4.324;2023-07-02T05:31:47;54.70;;;30.02;;
22435;SDS011;11385;50.822;4.324;2023-07-02T05:34:13;61.90;;;29.27;;
22435;SDS011;11385;50.822;4.324;2023-07-02T05:36:40;57.70;;;30.05;;
22435;SDS011;11385;50.822;4.324;2023-07-02T05:39:07;53.10;;;29.07;;
22435;SDS011;11385;50.822;4.324;2023-07-02T05:41:33;57.05;;;29.40;;
22435;SDS011;11385;50.822;4.324;2023-07-02T05:44:00;51.77;;;28.20;;
22435;SDS011;11385;50.822;4.324;2023-07-02T05:46:27;52.25;;;30.10;;
22435;SDS011;11385;50.822;4.324;2023-07-02T05:48:53;56.18;;;27.85;;
22435;SDS011;11385;50.822;4.324;2023-07-02T05:51:23;51.75;;;29.25;;
22435;SDS011;11385;50.822;4.324;2023-07-02T05:53:50;50.00;;;28.62;;
22435;SDS011;11385;50.822;4.324;2023-07-02T05:56:17;59.08;;;30.25;;
22435;SDS011;11385;50.822;4.324;2023-07-02T05:58:45;59.35;;;28.60;;
22435;SDS011;11385;50.822;4.324;2023-07-02T06:01:13;55.78;;;28.87;;
22435;SDS011;11385;50.822;4.324;2023-07-02T06:03:40;54.25;;;26.95;;
22435;SDS011;11385;50.822;4.324;2023-07-02T06:06:07;50.98;;;27.98;;
22435;SDS011;11385;50.822;4.324;2023-07-02T06:08:34;52.35;;;27.27;;
22435;SDS011;11385;50.822;4.324;2023-07-02T06:11:01;55.08;;;28.07;;
22435;SDS011;11385;50.822;4.324;2023-07-02T06:13:28;52.25;;;27.13;;
22435;SDS011;11385;50.822;4.324;2023-07-02T06:15:54;56.77;;;28.32;;
22435;SDS011;11385;50.822;4.324;2023-07-02T06:18:21;47.95;;;26.42;;
22435;SDS011;11385;50.822;4.324;2023-07-02T06:20:48;53.23;;;27.93;;
22435;SDS011;11385;50.822;4.324;2023-07-02T06:23:15;57.08;;;26.95;;
22435;SDS011;11385;50.822;4.324;2023-07-02T06:25:42;58.80;;;26.62;;
22435;SDS011;11385;50.822;4.324;2023-07-02T06:28:09;49.38;;;25.48;;
22435;SDS011;11385;50.822;4.324;2023-07-02T06:30:36;45.43;;;24.12;;
22435;SDS011;11385;50.822;4.324;2023-07-02T06:33:03;48.68;;;25.82;;
22435;SDS011;11385;50.822;4.324;2023-07-02T06:35:29;54.73;;;26.50;;
22435;SDS011;11385;50.822;4.324;2023-07-02T06:37:56;45.05;;;24.98;;
22435;SDS011;11385;50.822;4.324;2023-07-02T06:40:23;51.00;;;25.68;;
22435;SDS011;11385;50.822;4.324;2023-07-02T06:42:49;46.77;;;24.57;;
22435;SDS011;11385;50.822;4.324;2023-07-02T06:45:16;47.73;;;25.35;;
22435;SDS011;11385;50.822;4.324;2023-07-02T06:47:43;46.60;;;22.98;;
22435;SDS011;11385;50.822;4.324;2023-07-02T06:50:09;43.95;;;21.10;;
22435;SDS011;11385;50.822;4.324;2023-07-02T06:52:36;38.02;;;20.48;;
22435;SDS011;11385;50.822;4.324;2023-07-02T06:55:03;38.60;;;21.15;;
22435;SDS011;11385;50.822;4.324;2023-07-02T06:57:30;39.65;;;21.40;;
22435;SDS011;11385;50.822;4.324;2023-07-02T06:59:57;36.85;;;19.98;;
22435;SDS011;11385;50.822;4.324;2023-07-02T07:02:25;43.60;;;20.43;;
22435;SDS011;11385;50.822;4.324;2023-07-02T07:04:53;37.50;;;18.87;;
22435;SDS011;11385;50.822;4.324;2023-07-02T07:07:19;36.33;;;18.60;;
22435;SDS011;11385;50.822;4.324;2023-07-02T07:09:47;33.28;;;16.62;;
22435;SDS011;11385;50.822;4.324;2023-07-02T07:12:13;34.67;;;17.25;;
22435;SDS011;11385;50.822;4.324;2023-07-02T07:14:40;33.83;;;17.17;;
22435;SDS011;11385;50.822;4.324;2023-07-02T07:17:08;30.12;;;16.40;;
22435;SDS011;11385;50.822;4.324;2023-07-02T07:19:35;27.85;;;14.47;;
22435;SDS011;11385;50.822;4.324;2023-07-02T07:22:01;31.50;;;15.93;;
22435;SDS011;11385;50.822;4.324;2023-07-02T07:24:29;27.90;;;15.35;;
22435;SDS011;11385;50.822;4.324;2023-07-02T07:26:56;33.45;;;16.67;;
22435;SDS011;11385;50.822;4.324;2023-07-02T07:29:22;34.78;;;15.90;;
22435;SDS011;11385;50.822;4.324;2023-07-02T07:31:50;37.53;;;16.70;;
22435;SDS011;11385;50.822;4.324;2023-07-02T07:34:17;27.52;;;14.07;;
22435;SDS011;11385;50.822;4.324;2023-07-02T07:36:43;28.02;;;15.32;;
22435;SDS011;11385;50.822;4.324;2023-07-02T07:39:10;31.20;;;16.23;;
22435;SDS011;11385;50.822;4.324;2023-07-02T07:41:36;28.67;;;15.60;;
22435;SDS011;11385;50.822;4.324;2023-07-02T07:44:03;32.75;;;15.93;;
22435;SDS011;11385;50.822;4.324;2023-07-02T07:46:30;34.60;;;15.53;;
22435;SDS011;11385;50.822;4.324;2023-07-02T07:48:56;28.83;;;14.35;;
22435;SDS011;11385;50.822;4.324;2023-07-02T07:51:23;32.58;;;15.45;;
22435;SDS011;11385;50.822;4.324;2023-07-02T07:53:50;28.67;;;14.55;;
22435;SDS011;11385;50.822;4.324;2023-07-02T07:56:16;28.32;;;14.28;;
22435;SDS011;11385;50.822;4.324;2023-07-02T07:58:43;26.45;;;13.98;;
22435;SDS011;11385;50.822;4.324;2023-07-02T08:01:10;28.40;;;15.55;;
22435;SDS011;11385;50.822;4.324;2023-07-02T08:03:37;31.68;;;14.58;;
22435;SDS011;11385;50.822;4.324;2023-07-02T08:06:05;31.52;;;14.70;;
22435;SDS011;11385;50.822;4.324;2023-07-02T08:08:31;33.25;;;14.63;;
22435;SDS011;11385;50.822;4.324;2023-07-02T08:10:58;30.88;;;14.20;;
22435;SDS011;11385;50.822;4.324;2023-07-02T08:13:25;30.82;;;13.55;;
22435;SDS011;11385;50.822;4.324;2023-07-02T08:15:52;23.77;;;12.90;;
22435;SDS011;11385;50.822;4.324;2023-07-02T08:18:18;30.77;;;14.50;;
22435;SDS011;11385;50.822;4.324;2023-07-02T08:20:45;26.73;;;14.20;;
22435;SDS011;11385;50.822;4.324;2023-07-02T08:23:11;31.90;;;14.60;;
22435;SDS011;11385;50.822;4.324;2023-07-02T08:25:38;27.82;;;14.47;;
22435;SDS011;11385;50.822;4.324;2023-07-02T08:28:06;28.25;;;14.00;;
22435;SDS011;11385;50.822;4.324;2023-07-02T08:30:33;29.32;;;14.30;;
22435;SDS011;11385;50.822;4.324;2023-07-02T08:33:01;29.02;;;13.93;;
22435;SDS011;11385;50.822;4.324;2023-07-02T08:35:28;30.32;;;14.75;;
22435;SDS011;11385;50.822;4.324;2023-07-02T08:37:54;29.02;;;15.85;;
22435;SDS011;11385;50.822;4.324;2023-07-02T08:40:22;30.85;;;14.95;;
22435;SDS011;11385;50.822;4.324;2023-07-02T08:42:49;27.55;;;14.05;;
22435;SDS011;11385;50.822;4.324;2023-07-02T08:45:16;25.10;;;13.30;;
22435;SDS011;11385;50.822;4.324;2023-07-02T08:47:43;34.48;;;15.88;;
22435;SDS011;11385;50.822;4.324;2023-07-02T08:50:12;32.48;;;15.05;;
22435;SDS011;11385;50.822;4.324;2023-07-02T08:52:39;26.97;;;12.58;;
22435;SDS011;11385;50.822;4.324;2023-07-02T08:55:06;29.18;;;13.43;;
22435;SDS011;11385;50.822;4.324;2023-07-02T08:57:34;26.40;;;13.18;;
22435;SDS011;11385;50.822;4.324;2023-07-02T09:00:04;30.02;;;14.23;;
22435;SDS011;11385;50.822;4.324;2023-07-02T09:02:34;30.70;;;13.90;;
22435;SDS011;11385;50.822;4.324;2023-07-02T09:05:01;29.55;;;14.03;;
22435;SDS011;11385;50.822;4.324;2023-07-02T09:07:29;28.62;;;14.53;;
22435;SDS011;11385;50.822;4.324;2023-07-02T09:09:56;27.55;;;14.73;;
22435;SDS011;11385;50.822;4.324;2023-07-02T09:12:24;30.60;;;14.63;;
22435;SDS011;11385;50.822;4.324;2023-07-02T09:17:27;23.52;;;12.50;;
22435;SDS011;11385;50.822;4.324;2023-07-02T09:19:55;27.13;;;14.20;;
22435;SDS011;11385;50.822;4.324;2023-07-02T09:22:26;29.47;;;12.37;;
22435;SDS011;11385;50.822;4.324;2023-07-02T09:24:54;25.10;;;12.35;;
22435;SDS011;11385;50.822;4.324;2023-07-02T09:30:06;24.10;;;11.78;;
22435;SDS011;11385;50.822;4.324;2023-07-02T09:32:35;23.62;;;11.35;;
22435;SDS011;11385;50.822;4.324;2023-07-02T09:35:01;23.50;;;10.78;;
22435;SDS011;11385;50.822;4.324;2023-07-02T09:37:29;22.35;;;11.33;;
22435;SDS011;11385;50.822;4.324;2023-07-02T09:39:57;26.82;;;12.63;;
22435;SDS011;11385;50.822;4.324;2023-07-02T09:42:25;21.60;;;11.43;;
22435;SDS011;11385;50.822;4.324;2023-07-02T09:44:54;27.37;;;12.25;;
22435;SDS011;11385;50.822;4.324;2023-07-02T09:47:23;25.95;;;13.13;;
22435;SDS011;11385;50.822;4.324;2023-07-02T09:49:54;25.30;;;12.65;;
22435;SDS011;11385;50.822;4.324;2023-07-02T09:52:22;24.02;;;12.73;;
22435;SDS011;11385;50.822;4.324;2023-07-02T09:54:50;29.27;;;13.80;;
22435;SDS011;11385;50.822;4.324;2023-07-02T09:57:17;23.35;;;12.28;;
22435;SDS011;11385;50.822;4.324;2023-07-02T09:59:43;24.92;;;11.95;;
22435;SDS011;11385;50.822;4.324;2023-07-02T10:02:10;23.62;;;11.95;;
22435;SDS011;11385;50.822;4.324;2023-07-02T10:04:46;21.15;;;11.25;;
22435;SDS011;11385;50.822;4.324;2023-07-02T10:07:25;25.65;;;12.53;;
22435;SDS011;11385;50.822;4.324;2023-07-02T10:09:53;24.20;;;11.33;;
22435;SDS011;11385;50.822;4.324;2023-07-02T10:12:20;24.50;;;11.60;;
22435;SDS011;11385;50.822;4.324;2023-07-02T10:14:49;26.07;;;11.60;;
22435;SDS011;11385;50.822;4.324;2023-07-02T10:17:24;25.35;;;10.65;;
22435;SDS011;11385;50.822;4.324;2023-07-02T10:19:55;25.32;;;11.43;;
22435;SDS011;11385;50.822;4.324;2023-07-02T10:22:23;23.62;;;12.18;;
22435;SDS011;11385;50.822;4.324;2023-07-02T10:24:54;23.50;;;11.88;;
22435;SDS011;11385;50.822;4.324;2023-07-02T10:27:34;27.50;;;13.65;;
22435;SDS011;11385;50.822;4.324;2023-07-02T10:30:03;29.98;;;12.75;;
22435;SDS011;11385;50.822;4.324;2023-07-02T10:32:31;24.35;;;12.50;;
22435;SDS011;11385;50.822;4.324;2023-07-02T10:35:02;22.67;;;11.70;;
22435;SDS011;11385;50.822;4.324;2023-07-02T10:37:35;25.15;;;13.20;;
22435;SDS011;11385;50.822;4.324;2023-07-02T10:40:04;26.52;;;12.60;;
22435;SDS011;11385;50.822;4.324;2023-07-02T10:45:12;28.52;;;12.47;;
22435;SDS011;11385;50.822;4.324;2023-07-02T10:47:39;27.27;;;11.70;;
22435;SDS011;11385;50.822;4.324;2023-07-02T10:52:40;25.75;;;12.05;;
22435;SDS011;11385;50.822;4.324;2023-07-02T10:55:07;25.15;;;11.73;;
22435;SDS011;11385;50.822;4.324;2023-07-02T10:57:35;22.32;;;10.48;;
22435;SDS011;11385;50.822;4.324;2023-07-02T11:00:05;22.52;;;11.45;;
22435;SDS011;11385;50.822;4.324;2023-07-02T11:02:36;19.12;;;10.20;;
22435;SDS011;11385;50.822;4.324;2023-07-02T11:05:05;20.37;;;10.03;;
22435;SDS011;11385;50.822;4.324;2023-07-02T11:07:33;23.75;;;9.98;;
22435;SDS011;11385;50.822;4.324;2023-07-02T11:10:00;19.75;;;9.58;;
22435;SDS011;11385;50.822;4.324;2023-07-02T11:12:28;21.70;;;10.28;;
22435;SDS011;11385;50.822;4.324;2023-07-02T11:17:33;18.45;;;9.83;;
22435;SDS011;11385;50.822;4.324;2023-07-02T11:20:00;22.55;;;9.35;;
22435;SDS011;11385;50.822;4.324;2023-07-02T11:22:32;19.98;;;10.38;;
22435;SDS011;11385;50.822;4.324;2023-07-02T11:27:37;19.15;;;9.48;;
22435;SDS011;11385;50.822;4.324;2023-07-02T11:30:04;17.77;;;9.38;;
22435;SDS011;11385;50.822;4.324;2023-07-02T11:32:31;20.00;;;9.03;;
22435;SDS011;11385;50.822;4.324;2023-07-02T11:35:00;18.12;;;9.38;;
22435;SDS011;11385;50.822;4.324;2023-07-02T11:37:27;22.05;;;9.68;;
22435;SDS011;11385;50.822;4.324;2023-07-02T11:39:54;20.37;;;10.30;;
22435;SDS011;11385;50.822;4.324;2023-07-02T11:42:20;20.72;;;10.23;;
22435;SDS011;11385;50.822;4.324;2023-07-02T11:44:47;20.43;;;9.93;;
22435;SDS011;11385;50.822;4.324;2023-07-02T11:47:14;25.52;;;10.45;;
22435;SDS011;11385;50.822;4.324;2023-07-02T11:49:40;19.67;;;9.48;;
22435;SDS011;11385;50.822;4.324;2023-07-02T11:52:07;22.10;;;10.58;;
22435;SDS011;11385;50.822;4.324;2023-07-02T11:54:34;21.02;;;10.85;;
22435;SDS011;11385;50.822;4.324;2023-07-02T11:57:01;23.73;;;10.88;;
22435;SDS011;11385;50.822;4.324;2023-07-02T11:59:28;23.10;;;11.28;;
22435;SDS011;11385;50.822;4.324;2023-07-02T12:01:54;19.65;;;9.68;;
22435;SDS011;11385;50.822;4.324;2023-07-02T12:04:21;20.92;;;9.98;;
22435;SDS011;11385;50.822;4.324;2023-07-02T12:06:48;20.68;;;9.75;;
22435;SDS011;11385;50.822;4.324;2023-07-02T12:09:14;22.15;;;9.88;;
22435;SDS011;11385;50.822;4.324;2023-07-02T12:11:42;18.50;;;9.25;;
22435;SDS011;11385;50.822;4.324;2023-07-02T12:14:11;19.32;;;9.23;;
22435;SDS011;11385;50.822;4.324;2023-07-02T12:16:38;21.00;;;9.90;;
22435;SDS011;11385;50.822;4.324;2023-07-02T12:19:05;20.15;;;11.05;;
22435;SDS011;11385;50.822;4.324;2023-07-02T12:21:32;21.65;;;10.15;;
22435;SDS011;11385;50.822;4.324;2023-07-02T12:23:58;21.40;;;10.20;;
22435;SDS011;11385;50.822;4.324;2023-07-02T12:26:26;19.55;;;9.40;;
22435;SDS011;11385;50.822;4.324;2023-07-02T12:28:54;19.12;;;9.73;;
22435;SDS011;11385;50.822;4.324;2023-07-02T12:31:21;19.82;;;9.63;;
22435;SDS011;11385;50.822;4.324;2023-07-02T12:33:48;20.20;;;10.35;;
22435;SDS011;11385;50.822;4.324;2023-07-02T12:36:16;16.60;;;9.50;;
22435;SDS011;11385;50.822;4.324;2023-07-02T12:38:42;18.77;;;9.55;;
22435;SDS011;11385;50.822;4.324;2023-07-02T12:41:09;19.20;;;9.28;;
22435;SDS011;11385;50.822;4.324;2023-07-02T12:43:36;18.57;;;9.93;;
22435;SDS011;11385;50.822;4.324;2023-07-02T12:46:03;19.80;;;9.38;;
22435;SDS011;11385;50.822;4.324;2023-07-02T12:48:30;19.50;;;9.53;;
22435;SDS011;11385;50.822;4.324;2023-07-02T12:50:57;15.05;;;8.93;;
22435;SDS011;11385;50.822;4.324;2023-07-02T12:53:25;21.62;;;9.98;;
22435;SDS011;11385;50.822;4.324;2023-07-02T12:55:52;20.20;;;8.98;;
22435;SDS011;11385;50.822;4.324;2023-07-02T12:58:20;21.12;;;9.68;;
22435;SDS011;11385;50.822;4.324;2023-07-02T13:00:47;18.87;;;8.65;;
22435;SDS011;11385;50.822;4.324;2023-07-02T13:03:13;17.27;;;9.58;;
22435;SDS011;11385;50.822;4.324;2023-07-02T13:05:40;17.25;;;8.30;;
22435;SDS011;11385;50.822;4.324;2023-07-02T13:08:07;18.80;;;8.58;;
22435;SDS011;11385;50.822;4.324;2023-07-02T13:10:33;19.87;;;8.63;;
22435;SDS011;11385;50.822;4.324;2023-07-02T13:13:00;15.35;;;8.13;;
22435;SDS011;11385;50.822;4.324;2023-07-02T13:15:27;19.73;;;9.35;;
22435;SDS011;11385;50.822;4.324;2023-07-02T13:17:54;15.93;;;8.75;;
22435;SDS011;11385;50.822;4.324;2023-07-02T13:20:20;17.00;;;7.72;;
22435;SDS011;11385;50.822;4.324;2023-07-02T13:22:47;17.70;;;9.08;;
22435;SDS011;11385;50.822;4.324;2023-07-02T13:25:14;17.32;;;9.10;;
22435;SDS011;11385;50.822;4.324;2023-07-02T13:27:40;18.62;;;8.23;;
22435;SDS011;11385;50.822;4.324;2023-07-02T13:30:07;17.60;;;8.68;;
22435;SDS011;11385;50.822;4.324;2023-07-02T13:32:34;19.92;;;9.23;;
22435;SDS011;11385;50.822;4.324;2023-07-02T13:35:01;15.65;;;8.00;;
22435;SDS011;11385;50.822;4.324;2023-07-02T13:37:27;14.90;;;7.42;;
22435;SDS011;11385;50.822;4.324;2023-07-02T13:39:54;19.50;;;8.08;;
22435;SDS011;11385;50.822;4.324;2023-07-02T13:42:20;16.93;;;8.35;;
22435;SDS011;11385;50.822;4.324;2023-07-02T13:44:47;16.93;;;8.48;;
22435;SDS011;11385;50.822;4.324;2023-07-02T13:47:14;17.70;;;8.25;;
22435;SDS011;11385;50.822;4.324;2023-07-02T13:49:40;17.48;;;8.83;;
22435;SDS011;11385;50.822;4.324;2023-07-02T13:52:07;16.15;;;7.87;;
22435;SDS011;11385;50.822;4.324;2023-07-02T13:54:34;18.60;;;8.60;;
22435;SDS011;11385;50.822;4.324;2023-07-02T13:57:00;16.87;;;7.78;;
22435;SDS011;11385;50.822;4.324;2023-07-02T13:59:29;18.70;;;8.50;;
22435;SDS011;11385;50.822;4.324;2023-07-02T14:01:55;16.85;;;7.87;;
22435;SDS011;11385;50.822;4.324;2023-07-02T14:04:22;17.55;;;8.38;;
22435;SDS011;11385;50.822;4.324;2023-07-02T14:06:50;18.17;;;8.98;;
22435;SDS011;11385;50.822;4.324;2023-07-02T14:09:16;21.80;;;8.50;;
22435;SDS011;11385;50.822;4.324;2023-07-02T14:11:43;17.17;;;8.58;;
22435;SDS011;11385;50.822;4.324;2023-07-02T14:14:10;17.75;;;8.53;;
22435;SDS011;11385;50.822;4.324;2023-07-02T14:16:37;19.87;;;9.08;;
22435;SDS011;11385;50.822;4.324;2023-07-02T14:19:04;17.80;;;8.38;;
22435;SDS011;11385;50.822;4.324;2023-07-02T14:21:31;17.45;;;8.93;;
22435;SDS011;11385;50.822;4.324;2023-07-02T14:23:58;18.07;;;8.45;;
22435;SDS011;11385;50.822;4.324;2023-07-02T14:26:25;17.60;;;7.97;;
22435;SDS011;11385;50.822;4.324;2023-07-02T14:28:52;19.23;;;8.30;;
22435;SDS011;11385;50.822;4.324;2023-07-02T14:31:19;16.48;;;8.03;;
22435;SDS011;11385;50.822;4.324;2023-07-02T14:33:45;20.57;;;8.28;;
22435;SDS011;11385;50.822;4.324;2023-07-02T14:36:12;19.12;;;8.70;;
22435;SDS011;11385;50.822;4.324;2023-07-02T14:38:40;18.37;;;7.92;;
22435;SDS011;11385;50.822;4.324;2023-07-02T14:41:07;16.90;;;7.97;;
22435;SDS011;11385;50.822;4.324;2023-07-02T14:43:33;21.10;;;8.33;;